Time,TemperatureF,DewpointF,PressureIn,WindDirection,WindDirectionDegrees,WindSpeedMPH,WindSpeedGustMPH,Humidity,HourlyPrecipIn,Conditions,Clouds,dailyrainin,SoftwareType,DateUTC
2013-06-11 00:02:00,70.0,46.0,29.73,South,185,2.0,13.0,42,0.00,,,0.00,,2013-06-11 05:02:00,
2013-06-11 00:12:00,70.0,46.0,29.73,South,185,2.0,13.0,42,0.00,,,0.00,,2013-06-11 05:12:00,
2013-06-11 00:22:00,69.0,47.0,29.73,SSW,205,2.0,13.0,45,0.00,,,0.00,,2013-06-11 05:22:00,
2013-06-11 00:32:00,69.0,47.0,29.73,SSW,205,2.0,13.0,45,0.00,,,0.00,,2013-06-11 05:32:00,
2013-06-11 00:42:00,69.0,47.0,29.73,SSW,205,2.0,13.0,45,0.00,,,0.00,,2013-06-11 05:42:00,
2013-06-11 00:52:00,68.0,49.0,29.72,SSE,167,0.0,12.0,51,0.00,,,0.00,,2013-06-11 05:52:00,
2013-06-11 01:02:00,68.0,49.0,29.72,SSE,167,0.0,12.0,51,0.00,,,0.00,,2013-06-11 06:02:00,
2013-06-11 01:12:00,68.0,49.0,29.72,SSE,167,0.0,12.0,51,0.00,,,0.00,,2013-06-11 06:12:00,
2013-06-11 01:22:00,66.0,51.0,29.73,North,358,1.0,9.0,59,0.00,,,0.00,,2013-06-11 06:22:00,
2013-06-11 01:32:00,66.0,51.0,29.73,North,358,1.0,9.0,59,0.00,,,0.00,,2013-06-11 06:32:00,
2013-06-11 01:42:00,66.0,51.0,29.73,North,358,1.0,9.0,59,0.00,,,0.00,,2013-06-11 06:42:00,
2013-06-11 01:52:00,66.0,52.0,29.72,WSW,258,3.0,12.0,60,0.00,,,0.00,,2013-06-11 06:52:00,
2013-06-11 02:02:00,66.0,52.0,29.72,WSW,258,3.0,12.0,60,0.00,,,0.00,,2013-06-11 07:02:00,
2013-06-11 02:13:00,65.0,52.0,29.71,WNW,287,4.0,9.0,63,0.00,,,0.00,,2013-06-11 07:13:00,
2013-06-11 02:22:00,65.0,52.0,29.71,WNW,287,4.0,9.0,63,0.00,,,0.00,,2013-06-11 07:22:00,
2013-06-11 02:32:00,65.0,52.0,29.71,WNW,287,4.0,9.0,63,0.00,,,0.00,,2013-06-11 07:32:00,
2013-06-11 02:42:00,65.0,51.0,29.69,East,100,2.0,12.0,61,0.00,,,0.00,,2013-06-11 07:42:00,
2013-06-11 02:52:00,65.0,51.0,29.69,East,100,2.0,12.0,61,0.00,,,0.00,,2013-06-11 07:52:00,
2013-06-11 03:02:00,65.0,51.0,29.69,East,100,2.0,12.0,61,0.00,,,0.00,,2013-06-11 08:02:00,
2013-06-11 03:12:00,65.0,51.0,29.69,East,100,2.0,12.0,61,0.00,,,0.00,,2013-06-11 08:12:00,
2013-06-11 03:22:00,63.0,47.0,29.70,ESE,110,0.0,6.0,55,0.00,,,0.00,,2013-06-11 08:22:00,
2013-06-11 03:32:00,63.0,47.0,29.70,ESE,110,0.0,6.0,55,0.00,,,0.00,,2013-06-11 08:32:00,
2013-06-11 03:42:00,58.0,47.0,29.73,ESE,110,0.0,2.0,67,0.00,,,0.00,,2013-06-11 08:42:00,
2013-06-11 03:52:00,58.0,47.0,29.73,ESE,110,0.0,2.0,67,0.00,,,0.00,,2013-06-11 08:52:00,
2013-06-11 04:02:00,58.0,47.0,29.73,ESE,110,0.0,2.0,67,0.00,,,0.00,,2013-06-11 09:02:00,
2013-06-11 04:12:00,58.0,47.0,29.73,ESE,110,0.0,2.0,67,0.00,,,0.00,,2013-06-11 09:12:00,
2013-06-11 04:22:00,54.0,46.0,29.75,ESE,116,2.0,3.0,74,0.00,,,0.00,,2013-06-11 09:22:00,
2013-06-11 04:43:00,54.0,46.0,29.75,ESE,116,2.0,3.0,74,0.00,,,0.00,,2013-06-11 09:43:00,
2013-06-11 04:53:00,54.0,47.0,29.74,SE,124,2.0,3.0,77,0.00,,,0.00,,2013-06-11 09:53:00,
2013-06-11 05:12:00,54.0,47.0,29.74,SE,124,2.0,3.0,77,0.00,,,0.00,,2013-06-11 10:12:00,
2013-06-11 05:22:00,52.0,47.0,29.75,SE,124,2.0,3.0,83,0.00,,,0.00,,2013-06-11 10:22:00,
2013-06-11 05:43:00,52.0,47.0,29.75,SE,124,2.0,3.0,83,0.00,,,0.00,,2013-06-11 10:43:00,
2013-06-11 05:52:00,51.0,47.0,29.75,SE,124,0.0,2.0,86,0.00,,,0.00,,2013-06-11 10:52:00,
2013-06-11 06:12:00,51.0,47.0,29.75,SE,124,0.0,2.0,86,0.00,,,0.00,,2013-06-11 11:12:00,
2013-06-11 06:22:00,50.0,47.0,29.77,SE,124,0.0,2.0,89,0.00,,,0.00,,2013-06-11 11:22:00,
2013-06-11 06:42:00,50.0,47.0,29.77,SE,124,0.0,2.0,89,0.00,,,0.00,,2013-06-11 11:42:00,
2013-06-11 06:52:00,50.0,47.0,29.79,SE,124,0.0,1.0,89,0.00,,,0.00,,2013-06-11 11:52:00,
2013-06-11 07:12:00,50.0,47.0,29.79,SE,124,0.0,1.0,89,0.00,,,0.00,,2013-06-11 12:12:00,
2013-06-11 07:22:00,49.0,46.0,29.79,SE,124,1.0,3.0,90,0.00,,,0.00,,2013-06-11 12:22:00,
2013-06-11 07:42:00,52.0,49.0,29.79,SE,124,1.0,3.0,91,0.00,,,0.00,,2013-06-11 12:42:00,
2013-06-11 07:52:00,52.0,49.0,29.79,SE,124,1.0,3.0,91,0.00,,,0.00,,2013-06-11 12:52:00,
2013-06-11 08:02:00,52.0,49.0,29.79,SE,124,1.0,3.0,91,0.00,,,0.00,,2013-06-11 13:02:00,
2013-06-11 08:12:00,52.0,49.0,29.79,SE,124,1.0,3.0,91,0.00,,,0.00,,2013-06-11 13:12:00,
2013-06-11 08:22:00,58.0,54.0,29.76,SW,236,0.0,1.0,86,0.00,,,0.00,,2013-06-11 13:22:00,
2013-06-11 08:32:00,58.0,54.0,29.76,SW,236,0.0,1.0,86,0.00,,,0.00,,2013-06-11 13:32:00,
2013-06-11 08:42:00,58.0,54.0,29.76,SW,236,0.0,1.0,86,0.00,,,0.00,,2013-06-11 13:42:00,
2013-06-11 08:52:00,66.0,54.0,29.74,SW,236,0.0,1.0,65,0.00,,,0.00,,2013-06-11 13:52:00,
2013-06-11 09:02:00,66.0,54.0,29.74,SW,236,0.0,1.0,65,0.00,,,0.00,,2013-06-11 14:02:00,
2013-06-11 09:12:00,66.0,54.0,29.74,SW,236,0.0,1.0,65,0.00,,,0.00,,2013-06-11 14:12:00,
2013-06-11 09:22:00,70.0,52.0,29.72,SE,124,2.0,10.0,53,0.00,,,0.00,,2013-06-11 14:22:00,
2013-06-11 09:32:00,70.0,52.0,29.72,SE,124,2.0,10.0,53,0.00,,,0.00,,2013-06-11 14:32:00,
2013-06-11 09:42:00,70.0,52.0,29.72,SE,124,2.0,10.0,53,0.00,,,0.00,,2013-06-11 14:42:00,
2013-06-11 09:53:00,73.0,53.0,29.73,ESE,106,1.0,7.0,49,0.00,,,0.00,,2013-06-11 14:53:00,
2013-06-11 10:02:00,73.0,53.0,29.73,ESE,106,1.0,7.0,49,0.00,,,0.00,,2013-06-11 15:02:00,
2013-06-11 10:12:00,73.0,53.0,29.73,ESE,106,1.0,7.0,49,0.00,,,0.00,,2013-06-11 15:12:00,
2013-06-11 10:22:00,75.0,52.0,29.73,SE,131,5.0,10.0,44,0.00,,,0.00,,2013-06-11 15:22:00,
2013-06-11 10:33:00,75.0,52.0,29.73,SE,131,5.0,10.0,44,0.00,,,0.00,,2013-06-11 15:33:00,
2013-06-11 10:43:00,75.0,52.0,29.73,SE,131,5.0,10.0,44,0.00,,,0.00,,2013-06-11 15:43:00,
2013-06-11 10:53:00,76.0,49.0,29.75,West,278,1.0,10.0,39,0.00,,,0.00,,2013-06-11 15:53:00,
2013-06-11 11:03:00,76.0,49.0,29.75,West,278,1.0,10.0,39,0.00,,,0.00,,2013-06-11 16:03:00,
2013-06-11 11:12:00,76.0,49.0,29.75,West,278,1.0,10.0,39,0.00,,,0.00,,2013-06-11 16:12:00,
2013-06-11 11:22:00,77.0,51.0,29.74,SE,145,6.0,10.0,40,0.00,,,0.00,,2013-06-11 16:22:00,
2013-06-11 11:32:00,77.0,51.0,29.74,SE,145,6.0,10.0,40,0.00,,,0.00,,2013-06-11 16:32:00,
2013-06-11 11:42:00,77.0,51.0,29.74,SE,145,6.0,10.0,40,0.00,,,0.00,,2013-06-11 16:42:00,
2013-06-11 11:52:00,77.0,51.0,29.76,SSW,192,2.0,9.0,41,0.00,,,0.00,,2013-06-11 16:52:00,
2013-06-11 12:02:00,77.0,51.0,29.76,SSW,192,2.0,9.0,41,0.00,,,0.00,,2013-06-11 17:02:00,
2013-06-11 12:12:00,77.0,51.0,29.76,SSW,192,2.0,9.0,41,0.00,,,0.00,,2013-06-11 17:12:00,
2013-06-11 12:22:00,79.0,51.0,29.75,East,86,2.0,12.0,38,0.00,,,0.00,,2013-06-11 17:22:00,
2013-06-11 12:32:00,79.0,51.0,29.75,East,86,2.0,12.0,38,0.00,,,0.00,,2013-06-11 17:32:00,
2013-06-11 12:43:00,81.0,47.0,29.75,SSE,158,2.0,9.0,31,0.00,,,0.00,,2013-06-11 17:43:00,
2013-06-11 12:52:00,81.0,47.0,29.75,SSE,158,2.0,9.0,31,0.00,,,0.00,,2013-06-11 17:52:00,
2013-06-11 13:02:00,81.0,47.0,29.75,SSE,158,2.0,9.0,31,0.00,,,0.00,,2013-06-11 18:02:00,
2013-06-11 13:12:00,81.0,47.0,29.75,SSE,158,2.0,9.0,31,0.00,,,0.00,,2013-06-11 18:12:00,
2013-06-11 13:22:00,82.0,45.0,29.74,ENE,78,3.0,8.0,27,0.00,,,0.00,,2013-06-11 18:22:00,
2013-06-11 13:32:00,82.0,45.0,29.74,ENE,78,3.0,8.0,27,0.00,,,0.00,,2013-06-11 18:32:00,
2013-06-11 13:43:00,82.0,45.0,29.74,ENE,78,3.0,8.0,27,0.00,,,0.00,,2013-06-11 18:43:00,
2013-06-11 13:52:00,83.0,41.0,29.73,SSW,195,3.0,10.0,23,0.00,,,0.00,,2013-06-11 18:52:00,
2013-06-11 14:02:00,83.0,41.0,29.73,SSW,195,3.0,10.0,23,0.00,,,0.00,,2013-06-11 19:02:00,
2013-06-11 14:12:00,83.0,41.0,29.73,SSW,195,3.0,10.0,23,0.00,,,0.00,,2013-06-11 19:12:00,
2013-06-11 14:22:00,84.0,44.0,29.71,ESE,102,3.0,12.0,25,0.00,,,0.00,,2013-06-11 19:22:00,
2013-06-11 14:32:00,84.0,44.0,29.71,ESE,102,3.0,12.0,25,0.00,,,0.00,,2013-06-11 19:32:00,
2013-06-11 14:42:00,84.0,44.0,29.71,ESE,102,3.0,12.0,25,0.00,,,0.00,,2013-06-11 19:42:00,
2013-06-11 14:53:00,84.0,45.0,29.73,ESE,114,3.0,10.0,26,0.00,,,0.00,,2013-06-11 19:53:00,
2013-06-11 15:02:00,84.0,45.0,29.73,ESE,114,3.0,10.0,26,0.00,,,0.00,,2013-06-11 20:02:00,
2013-06-11 15:12:00,84.0,45.0,29.73,ESE,114,3.0,10.0,26,0.00,,,0.00,,2013-06-11 20:12:00,
2013-06-11 15:22:00,86.0,44.0,29.72,North,0,5.0,12.0,23,0.00,,,0.00,,2013-06-11 20:22:00,
2013-06-11 15:32:00,86.0,44.0,29.72,North,0,5.0,12.0,23,0.00,,,0.00,,2013-06-11 20:32:00,
2013-06-11 15:42:00,86.0,44.0,29.72,North,0,5.0,12.0,23,0.00,,,0.00,,2013-06-11 20:42:00,
2013-06-11 15:52:00,86.0,41.0,29.75,SE,136,1.0,10.0,21,0.00,,,0.00,,2013-06-11 20:52:00,
2013-06-11 16:02:00,86.0,41.0,29.75,SE,136,1.0,10.0,21,0.00,,,0.00,,2013-06-11 21:02:00,
2013-06-11 16:12:00,86.0,41.0,29.75,SE,136,1.0,10.0,21,0.00,,,0.00,,2013-06-11 21:12:00,
2013-06-11 16:22:00,87.0,40.0,29.73,NE,34,7.0,12.0,19,0.00,,,0.00,,2013-06-11 21:22:00,
2013-06-11 16:33:00,87.0,40.0,29.73,NE,34,7.0,12.0,19,0.00,,,0.00,,2013-06-11 21:33:00,
2013-06-11 16:42:00,87.0,40.0,29.73,NE,34,7.0,12.0,19,0.00,,,0.00,,2013-06-11 21:42:00,
2013-06-11 16:53:00,87.0,40.0,29.75,ENE,57,1.0,12.0,19,0.00,,,0.00,,2013-06-11 21:53:00,
2013-06-11 17:03:00,87.0,40.0,29.75,ENE,57,1.0,12.0,19,0.00,,,0.00,,2013-06-11 22:03:00,
2013-06-11 17:12:00,87.0,40.0,29.75,ENE,57,1.0,12.0,19,0.00,,,0.00,,2013-06-11 22:12:00,
2013-06-11 17:22:00,87.0,35.0,29.74,ENE,78,1.0,10.0,16,0.00,,,0.00,,2013-06-11 22:22:00,
2013-06-11 17:32:00,87.0,35.0,29.74,ENE,78,1.0,10.0,16,0.00,,,0.00,,2013-06-11 22:32:00,
2013-06-11 17:42:00,87.0,35.0,29.74,ENE,78,1.0,10.0,16,0.00,,,0.00,,2013-06-11 22:42:00,
2013-06-11 17:52:00,87.0,37.0,29.75,NNW,336,0.0,10.0,17,0.00,,,0.00,,2013-06-11 22:52:00,
2013-06-11 18:02:00,87.0,37.0,29.75,NNW,336,0.0,10.0,17,0.00,,,0.00,,2013-06-11 23:02:00,
2013-06-11 18:12:00,87.0,37.0,29.75,NNW,336,0.0,10.0,17,0.00,,,0.00,,2013-06-11 23:12:00,
2013-06-11 18:22:00,88.0,36.0,29.72,NE,52,4.0,9.0,16,0.00,,,0.00,,2013-06-11 23:22:00,
2013-06-11 18:32:00,88.0,36.0,29.72,NE,52,4.0,9.0,16,0.00,,,0.00,,2013-06-11 23:32:00,
2013-06-11 18:42:00,88.0,36.0,29.72,NE,52,4.0,9.0,16,0.00,,,0.00,,2013-06-11 23:42:00,
2013-06-11 18:52:00,87.0,35.0,29.72,ENE,68,1.0,8.0,16,0.00,,,0.00,,2013-06-11 23:52:00,
2013-06-11 19:02:00,87.0,35.0,29.72,ENE,68,1.0,8.0,16,0.00,,,0.00,,2013-06-12 00:02:00,
2013-06-11 19:12:00,87.0,35.0,29.72,ENE,68,1.0,8.0,16,0.00,,,0.00,,2013-06-12 00:12:00,
2013-06-11 19:22:00,87.0,41.0,29.71,ENE,65,1.0,12.0,20,0.00,,,0.00,,2013-06-12 00:22:00,
2013-06-11 19:32:00,87.0,41.0,29.71,ENE,65,1.0,12.0,20,0.00,,,0.00,,2013-06-12 00:32:00,
2013-06-11 19:42:00,87.0,41.0,29.71,ENE,65,1.0,12.0,20,0.00,,,0.00,,2013-06-12 00:42:00,
2013-06-11 19:52:00,86.0,40.0,29.65,ESE,122,2.0,6.0,20,0.00,,,0.00,,2013-06-12 00:52:00,
2013-06-11 20:02:00,86.0,40.0,29.65,ESE,122,2.0,6.0,20,0.00,,,0.00,,2013-06-12 01:02:00,
2013-06-11 20:12:00,86.0,40.0,29.65,ESE,122,2.0,6.0,20,0.00,,,0.00,,2013-06-12 01:12:00,
2013-06-11 20:22:00,86.0,40.0,29.65,ESE,122,2.0,6.0,20,0.00,,,0.00,,2013-06-12 01:22:00,
2013-06-11 20:32:00,83.0,41.0,29.68,SE,131,3.0,10.0,23,0.00,,,0.00,,2013-06-12 01:32:00,
2013-06-11 20:42:00,83.0,41.0,29.68,SE,131,3.0,10.0,23,0.00,,,0.00,,2013-06-12 01:42:00,
2013-06-11 20:52:00,83.0,41.0,29.68,SE,131,3.0,10.0,23,0.00,,,0.00,,2013-06-12 01:52:00,
2013-06-11 21:02:00,81.0,44.0,29.64,SE,126,6.0,12.0,27,0.00,,,0.00,,2013-06-12 02:02:00,
2013-06-11 21:12:00,81.0,44.0,29.64,SE,126,6.0,12.0,27,0.00,,,0.00,,2013-06-12 02:12:00,
2013-06-11 21:22:00,81.0,44.0,29.64,SE,126,6.0,12.0,27,0.00,,,0.00,,2013-06-12 02:22:00,
2013-06-11 21:32:00,79.0,43.0,29.67,ESE,102,5.0,13.0,28,0.00,,,0.00,,2013-06-12 02:32:00,
2013-06-11 21:42:00,79.0,43.0,29.67,ESE,102,5.0,13.0,28,0.00,,,0.00,,2013-06-12 02:42:00,
2013-06-11 21:52:00,79.0,43.0,29.67,ESE,102,5.0,13.0,28,0.00,,,0.00,,2013-06-12 02:52:00,
2013-06-11 22:02:00,76.0,46.0,29.68,NE,38,6.0,18.0,34,0.00,,,0.00,,2013-06-12 03:02:00,
2013-06-11 22:12:00,76.0,46.0,29.68,NE,38,6.0,18.0,34,0.00,,,0.00,,2013-06-12 03:12:00,
2013-06-11 22:22:00,76.0,46.0,29.68,NE,38,6.0,18.0,34,0.00,,,0.00,,2013-06-12 03:22:00,
2013-06-11 22:32:00,74.0,46.0,29.70,NNW,337,2.0,22.0,37,0.00,,,0.00,,2013-06-12 03:32:00,
2013-06-11 22:43:00,74.0,46.0,29.70,NNW,337,2.0,22.0,37,0.00,,,0.00,,2013-06-12 03:43:00,
2013-06-11 22:53:00,74.0,46.0,29.70,NNW,337,2.0,22.0,37,0.00,,,0.00,,2013-06-12 03:53:00,
2013-06-11 23:03:00,73.0,47.0,29.70,NW,312,5.0,16.0,40,0.00,,,0.00,,2013-06-12 04:03:00,
2013-06-11 23:13:00,73.0,47.0,29.70,NW,312,5.0,16.0,40,0.00,,,0.00,,2013-06-12 04:13:00,
2013-06-11 23:23:00,73.0,47.0,29.70,NW,312,5.0,16.0,40,0.00,,,0.00,,2013-06-12 04:23:00,
2013-06-11 23:33:00,71.0,48.0,29.72,NE,42,3.0,10.0,44,0.00,,,0.00,,2013-06-12 04:33:00,
2013-06-11 23:42:00,71.0,48.0,29.72,NE,42,3.0,10.0,44,0.00,,,0.00,,2013-06-12 04:42:00,
2013-06-11 23:52:00,70.0,49.0,29.72,NNE,23,1.0,8.0,48,0.00,,,0.00,,2013-06-12 04:52:00,